Time;durP1;ratioP1;P1;durP2;ratioP2;P2;SDS_P1;SDS_P2;PMS_P1;PMS_P2;Temp;Humidity;BMP_temperature;BMP_pressure;BME280_temperature;BME280_humidity;BME280_pressure;Samples;Min_cycle;Max_cycle;Signal;HPM_P1;HPM_P2
2023/08/01 00:02:16;;;;;;;;;;;17.60;99.90;;;;;;4866784;29;19915;-91
2023/08/01 00:04:42;;;;;;;;;;;17.60;99.90;;;;;;4873440;29;20333;-91
2023/08/01 00:07:07;;;;;;;;;;;17.60;99.90;;;;;;4883309;29;19919;-91
2023/08/01 00:09:36;;;;;;;;;;;17.60;99.90;;;;;;4885837;29;19912;-91
2023/08/01 00:12:01;;;;;;;;;;;17.60;99.90;;;;;;4866959;29;19920;-91
2023/08/01 00:14:27;;;;;;;;;;;17.60;99.90;;;;;;4883850;29;20480;-90
2023/08/01 00:16:52;;;;;;;;;;;17.60;99.90;;;;;;4867246;29;19911;-92
2023/08/01 00:19:18;;;;;;;;;;;17.60;99.90;;;;;;4851976;29;20305;-92
2023/08/01 00:21:44;;;;;;;;;;;17.60;99.90;;;;;;4867270;29;19912;-91
2023/08/01 00:24:09;;;;;;;;;;;17.70;99.90;;;;;;4867390;29;19908;-91
2023/08/01 00:26:35;;;;;;;;;;;17.70;99.90;;;;;;4867242;29;19907;-92
2023/08/01 00:29:01;;;;;;;;;;;17.70;99.90;;;;;;4867563;29;19908;-92
2023/08/01 00:31:26;;;;;;;;;;;17.70;99.90;;;;;;4867349;29;19908;-92
2023/08/01 00:34:02;;;;;;;;;;;17.70;99.90;;;;;;4852656;29;19936;-91
2023/08/01 00:36:37;;;;;;;;;;;17.70;99.90;;;;;;4852229;29;19926;-91
2023/08/01 00:39:03;;;;;;;;;;;17.70;99.90;;;;;;4852892;29;19916;-91
2023/08/01 00:41:28;;;;;;;;;;;17.70;99.90;;;;;;4867253;29;19915;-92
2023/08/01 00:43:54;;;;;;;;;;;17.70;99.90;;;;;;4853058;29;19919;-91
2023/08/01 00:46:22;;;;;;;;;;;17.70;99.90;;;;;;4872663;29;19908;-90
2023/08/01 00:48:48;;;;;;;;;;;17.70;99.90;;;;;;4879888;29;19988;-90
2023/08/01 00:51:14;;;;;;;;;;;17.60;99.90;;;;;;4890204;29;19899;-92
2023/08/01 00:53:39;;;;;;;;;;;17.60;99.90;;;;;;4886150;29;19911;-92
2023/08/01 00:56:08;;;;;;;;;;;17.60;99.90;;;;;;4868335;29;20349;-92
2023/08/01 00:58:33;;;;;;;;;;;17.60;99.90;;;;;;4866774;29;19934;-92
2023/08/01 01:01:03;;;;;;;;;;;17.60;99.90;;;;;;4866111;29;20345;-90
2023/08/01 01:03:29;;;;;;;;;;;17.60;99.90;;;;;;4851192;29;19912;-92
2023/08/01 01:06:05;;;;;;;;;;;17.60;99.90;;;;;;4866331;29;19908;-93
2023/08/01 01:08:31;;;;;;;;;;;17.50;99.90;;;;;;4866449;29;20344;-91
2023/08/01 01:10:56;;;;;;;;;;;17.50;99.90;;;;;;4850688;29;19912;-92
2023/08/01 01:13:24;;;;;;;;;;;17.50;99.90;;;;;;4850464;29;19930;-91
2023/08/01 01:15:50;;;;;;;;;;;17.50;99.90;;;;;;4866429;29;19948;-92
2023/08/01 01:18:15;;;;;;;;;;;17.40;99.90;;;;;;4866147;29;19982;-92
2023/08/01 01:20:41;;;;;;;;;;;17.40;99.90;;;;;;4866248;29;19908;-91
2023/08/01 01:23:10;;;;;;;;;;;17.40;99.90;;;;;;4866162;29;19987;-92
2023/08/01 01:25:39;;;;;;;;;;;17.40;99.90;;;;;;4866700;29;19914;-91
2023/08/01 01:28:06;;;;;;;;;;;17.40;99.90;;;;;;4866270;29;19975;-91
2023/08/01 01:30:33;;;;;;;;;;;17.40;99.90;;;;;;4881446;29;19908;-91
2023/08/01 01:32:59;;;;;;;;;;;17.40;99.90;;;;;;4866072;29;19907;-91
2023/08/01 01:35:25;;;;;;;;;;;17.40;99.90;;;;;;4850875;29;19916;-91
2023/08/01 01:37:50;;;;;;;;;;;17.40;99.90;;;;;;4866107;29;19998;-92
2023/08/01 01:40:16;;;;;;;;;;;17.40;99.90;;;;;;4850433;29;19912;-90
2023/08/01 01:42:52;;;;;;;;;;;;;;;;;;;;;
2023/08/01 01:45:18;;;;;;;;;;;17.40;99.90;;;;;;4867463;29;19915;-92
2023/08/01 01:47:51;;;;;;;;;;;17.40;99.90;;;;;;4866129;29;20424;-92
2023/08/01 01:50:17;;;;;;;;;;;17.40;99.90;;;;;;4866183;29;19915;-91
2023/08/01 01:52:43;;;;;;;;;;;17.40;99.90;;;;;;4882522;29;19935;-91
2023/08/01 01:55:09;;;;;;;;;;;17.40;99.90;;;;;;4882101;29;19950;-92
2023/08/01 01:57:36;;;;;;;;;;;17.40;99.90;;;;;;4850003;29;20360;-91
2023/08/01 02:00:02;;;;;;;;;;;17.40;99.90;;;;;;4865743;29;19942;-92
2023/08/01 02:02:27;;;;;;;;;;;17.40;99.90;;;;;;4850708;29;19932;-91
2023/08/01 02:04:53;;;;;;;;;;;17.40;99.90;;;;;;4882534;29;19912;-92
2023/08/01 02:07:19;;;;;;;;;;;17.40;99.90;;;;;;4865644;29;20317;-91
2023/08/01 02:09:44;;;;;;;;;;;17.40;99.90;;;;;;4865669;29;19908;-90
2023/08/01 02:12:13;;;;;;;;;;;17.30;99.90;;;;;;4881565;29;19920;-91
2023/08/01 02:14:42;;;;;;;;;;;17.30;99.90;;;;;;4865356;29;19986;-90
2023/08/01 02:17:07;;;;;;;;;;;17.30;99.90;;;;;;4865333;29;19916;-91
2023/08/01 02:19:35;;;;;;;;;;;17.30;99.90;;;;;;4873476;29;20297;-92
2023/08/01 02:22:04;;;;;;;;;;;17.30;99.90;;;;;;4865657;29;19980;-91
2023/08/01 02:24:29;;;;;;;;;;;17.20;99.90;;;;;;4865057;29;19907;-91
2023/08/01 02:26:55;;;;;;;;;;;17.20;99.90;;;;;;4865451;29;19918;-91
2023/08/01 02:29:21;;;;;;;;;;;17.20;99.90;;;;;;4864963;29;20352;-91
2023/08/01 02:31:46;;;;;;;;;;;17.20;99.90;;;;;;4865081;29;20246;-91
2023/08/01 02:34:12;;;;;;;;;;;17.20;99.90;;;;;;4864781;29;19914;-91
2023/08/01 02:36:40;;;;;;;;;;;17.10;99.90;;;;;;4849387;29;19928;-90
2023/08/01 02:39:06;;;;;;;;;;;17.10;99.90;;;;;;4866895;29;19960;-91
2023/08/01 02:41:39;;;;;;;;;;;17.10;99.90;;;;;;4872674;29;19908;-91
2023/08/01 02:44:04;;;;;;;;;;;17.10;99.90;;;;;;4885743;29;19904;-91
2023/08/01 02:46:32;;;;;;;;;;;17.10;99.90;;;;;;4878727;29;19968;-91
2023/08/01 02:48:58;;;;;;;;;;;17.10;99.90;;;;;;4865595;29;20006;-91
2023/08/01 02:51:23;;;;;;;;;;;17.10;99.90;;;;;;4864921;29;19947;-90
2023/08/01 02:53:57;;;;;;;;;;;17.00;99.90;;;;;;4864491;29;20353;-90
2023/08/01 02:59:31;;;;;;;;;;;16.90;99.90;;;;;;4881083;29;19915;-90
2023/08/01 03:01:57;;;;;;;;;;;17.00;99.90;;;;;;4865551;29;19916;-90
2023/08/01 03:04:23;;;;;;;;;;;17.00;99.90;;;;;;4865553;29;20002;-90
2023/08/01 03:06:59;;;;;;;;;;;16.90;99.90;;;;;;4864866;29;19908;-90
2023/08/01 03:09:44;;;;;;;;;;;16.90;99.90;;;;;;4865425;29;19908;-91
2023/08/01 03:15:26;;;;;;;;;;;16.90;99.90;;;;;;4881061;29;19949;-91
2023/08/01 03:17:54;;;;;;;;;;;16.90;99.90;;;;;;4849585;29;19915;-91
2023/08/01 03:20:19;;;;;;;;;;;16.90;99.90;;;;;;4849805;29;19955;-91
2023/08/01 03:22:45;;;;;;;;;;;17.00;99.90;;;;;;4865458;29;19908;-90
2023/08/01 03:25:10;;;;;;;;;;;17.00;99.90;;;;;;4864850;29;19912;-90
2023/08/01 03:27:38;;;;;;;;;;;17.00;99.90;;;;;;4864163;29;19908;-92
2023/08/01 03:30:04;;;;;;;;;;;17.00;99.90;;;;;;4864371;29;19914;-90
2023/08/01 03:32:30;;;;;;;;;;;16.90;99.90;;;;;;4864724;29;20002;-91
2023/08/01 03:34:56;;;;;;;;;;;16.90;99.90;;;;;;4864556;29;20275;-90
2023/08/01 03:37:21;;;;;;;;;;;17.00;99.90;;;;;;4867085;29;20249;-90
2023/08/01 03:39:49;;;;;;;;;;;17.00;99.90;;;;;;4868428;29;19919;-91
2023/08/01 03:42:15;;;;;;;;;;;17.00;99.90;;;;;;4853035;29;20085;-91
2023/08/01 03:44:40;;;;;;;;;;;17.00;99.90;;;;;;4868398;29;19915;-91
2023/08/01 03:47:06;;;;;;;;;;;16.90;99.90;;;;;;4852702;29;19911;-91
2023/08/01 03:49:44;;;;;;;;;;;16.90;99.90;;;;;;4868253;29;19912;-92
2023/08/01 03:55:16;;;;;;;;;;;16.90;99.90;;;;;;4884552;29;19923;-92
2023/08/01 04:00:51;;;;;;;;;;;16.80;99.90;;;;;;4887457;29;19915;-92
2023/08/01 04:03:16;;;;;;;;;;;16.90;99.90;;;;;;4873276;29;19912;-92
2023/08/01 04:05:42;;;;;;;;;;;16.90;99.90;;;;;;4879306;29;19915;-91
2023/08/01 04:08:17;;;;;;;;;;;16.80;99.90;;;;;;4853548;29;19916;-93
2023/08/01 04:10:42;;;;;;;;;;;16.90;99.90;;;;;;4853058;29;20010;-92
2023/08/01 04:16:11;;;;;;;;;;;16.80;99.90;;;;;;4883738;29;19922;-92
2023/08/01 04:18:37;;;;;;;;;;;16.80;99.90;;;;;;4852218;29;19916;-90
2023/08/01 04:21:02;;;;;;;;;;;16.80;99.90;;;;;;4851839;29;19916;-90
2023/08/01 04:23:28;;;;;;;;;;;16.80;99.90;;;;;;4867675;29;19919;-90
2023/08/01 04:25:53;;;;;;;;;;;16.80;99.90;;;;;;4852000;29;19912;-90
2023/08/01 04:28:21;;;;;;;;;;;16.80;99.90;;;;;;4852774;29;19911;-92
2023/08/01 04:30:53;;;;;;;;;;;16.80;99.90;;;;;;4867966;29;20272;-90
2023/08/01 04:33:21;;;;;;;;;;;16.80;99.90;;;;;;4851605;29;19912;-90
2023/08/01 04:35:49;;;;;;;;;;;16.80;99.90;;;;;;4867183;29;19963;-90
2023/08/01 04:38:17;;;;;;;;;;;16.80;99.90;;;;;;4852012;29;19964;-91
2023/08/01 04:40:43;;;;;;;;;;;16.80;99.90;;;;;;4851779;29;19912;-93
2023/08/01 04:43:36;;;;;;;;;;;16.90;99.90;;;;;;4883722;29;20305;-92
2023/08/01 04:45:58;;;;;;;;;;;16.80;99.90;;;;;;4866389;29;20439;-91
2023/08/01 04:48:24;;;;;;;;;;;16.80;99.90;;;;;;4881945;29;19954;-91
2023/08/01 04:50:49;;;;;;;;;;;16.80;99.90;;;;;;4867544;29;19995;-91
2023/08/01 04:53:15;;;;;;;;;;;16.80;99.90;;;;;;4866579;29;19908;-91
2023/08/01 04:55:40;;;;;;;;;;;16.80;99.90;;;;;;4866652;29;19920;-91
2023/08/01 04:58:09;;;;;;;;;;;16.80;99.90;;;;;;4866910;29;20408;-90
2023/08/01 05:00:34;;;;;;;;;;;16.80;99.90;;;;;;4883346;29;19908;-91
2023/08/01 05:03:00;;;;;;;;;;;16.80;99.90;;;;;;4867067;29;19914;-91
2023/08/01 05:05:26;;;;;;;;;;;16.80;99.90;;;;;;4866724;29;19915;-90
2023/08/01 05:07:51;;;;;;;;;;;16.80;99.90;;;;;;4867162;29;19937;-90
2023/08/01 05:10:20;;;;;;;;;;;16.80;99.90;;;;;;4867492;29;19912;-91
2023/08/01 05:12:54;;;;;;;;;;;16.80;99.90;;;;;;4882612;29;20238;-91
2023/08/01 05:15:19;;;;;;;;;;;16.80;99.90;;;;;;4866687;29;19924;-92
2023/08/01 05:17:45;;;;;;;;;;;16.80;99.90;;;;;;4886226;29;19959;-90
2023/08/01 05:20:16;;;;;;;;;;;16.80;99.90;;;;;;4884310;29;19900;-91
2023/08/01 05:22:41;;;;;;;;;;;16.80;99.90;;;;;;4882871;29;19918;-91
2023/08/01 05:25:09;;;;;;;;;;;16.80;99.90;;;;;;4866346;29;19912;-92
2023/08/01 05:27:35;;;;;;;;;;;16.90;99.90;;;;;;4867645;29;19908;-92
2023/08/01 05:33:04;;;;;;;;;;;16.90;99.90;;;;;;4882685;29;19915;-93
2023/08/01 05:38:37;;;;;;;;;;;16.90;99.90;;;;;;4883478;29;19915;-93
2023/08/01 05:41:02;;;;;;;;;;;16.80;99.90;;;;;;4866751;29;20030;-91
2023/08/01 05:43:28;;;;;;;;;;;16.90;99.90;;;;;;4866384;29;19964;-93
2023/08/01 05:45:54;;;;;;;;;;;16.80;99.90;;;;;;4850715;29;19911;-92
2023/08/01 05:48:19;;;;;;;;;;;16.90;99.90;;;;;;4868430;29;19947;-92
2023/08/01 05:50:45;;;;;;;;;;;16.90;99.90;;;;;;4869321;29;19912;-92
2023/08/01 05:53:13;;;;;;;;;;;16.90;99.90;;;;;;4853816;29;19913;-93
2023/08/01 05:55:39;;;;;;;;;;;16.90;99.90;;;;;;4879360;29;19972;-91
2023/08/01 05:58:04;;;;;;;;;;;16.90;99.90;;;;;;4860095;29;19912;-91
2023/08/01 06:00:30;;;;;;;;;;;16.90;99.90;;;;;;4869017;29;19911;-91
2023/08/01 06:02:56;;;;;;;;;;;16.90;99.90;;;;;;4888973;29;19908;-92
2023/08/01 06:05:21;;;;;;;;;;;16.90;99.90;;;;;;4884889;29;19896;-92
2023/08/01 06:07:47;;;;;;;;;;;16.90;99.90;;;;;;4903919;29;19919;-93
2023/08/01 06:10:12;;;;;;;;;;;16.90;99.90;;;;;;4904293;29;19991;-92
2023/08/01 06:12:38;;;;;;;;;;;17.00;99.90;;;;;;4888419;29;19915;-94
2023/08/01 06:15:04;;;;;;;;;;;17.00;99.90;;;;;;4901183;29;19908;-90
2023/08/01 06:17:30;;;;;;;;;;;17.00;99.90;;;;;;4897317;29;19920;-93
2023/08/01 06:19:55;;;;;;;;;;;17.00;99.90;;;;;;4864035;29;20056;-93
2023/08/01 06:22:21;;;;;;;;;;;17.00;99.90;;;;;;4878941;29;19912;-92
2023/08/01 06:24:46;;;;;;;;;;;17.10;99.90;;;;;;4874222;29;19912;-94
2023/08/01 06:27:14;;;;;;;;;;;17.10;99.90;;;;;;4861368;29;19908;-91
2023/08/01 06:29:40;;;;;;;;;;;17.00;99.90;;;;;;4861221;29;19912;-94
2023/08/01 06:32:06;;;;;;;;;;;17.00;99.90;;;;;;4845936;29;19947;-94
2023/08/01 06:34:32;;;;;;;;;;;17.10;99.90;;;;;;4861180;29;20010;-87
2023/08/01 06:36:57;;;;;;;;;;;17.10;99.90;;;;;;4862716;29;20056;-87
2023/08/01 06:39:23;;;;;;;;;;;17.10;99.90;;;;;;4860982;29;20353;-86
2023/08/01 06:41:48;;;;;;;;;;;17.20;99.90;;;;;;4845760;29;19913;-86
2023/08/01 06:44:14;;;;;;;;;;;17.20;99.90;;;;;;4845195;29;19912;-86
2023/08/01 06:46:39;;;;;;;;;;;17.20;99.90;;;;;;4861048;29;19915;-86
2023/08/01 06:49:05;;;;;;;;;;;17.20;99.90;;;;;;4861206;29;19935;-86
2023/08/01 06:51:30;;;;;;;;;;;17.20;99.90;;;;;;4849135;29;19912;-86
2023/08/01 06:53:56;;;;;;;;;;;17.30;99.90;;;;;;4844137;29;19916;-87
2023/08/01 06:56:22;;;;;;;;;;;17.30;99.90;;;;;;4860714;29;19968;-87
2023/08/01 06:58:47;;;;;;;;;;;17.30;99.90;;;;;;4860076;29;20373;-86
2023/08/01 07:01:13;;;;;;;;;;;17.30;99.90;;;;;;4844707;29;19954;-87
2023/08/01 07:03:38;;;;;;;;;;;17.30;99.90;;;;;;4844998;29;20264;-85
2023/08/01 07:06:04;;;;;;;;;;;17.30;99.90;;;;;;4845429;29;19918;-86
2023/08/01 07:08:29;;;;;;;;;;;17.30;99.90;;;;;;4861052;29;19912;-86
2023/08/01 07:10:55;;;;;;;;;;;17.30;99.90;;;;;;4863234;29;19934;-86
2023/08/01 07:13:21;;;;;;;;;;;17.40;99.90;;;;;;4864809;29;20272;-86
2023/08/01 07:15:46;;;;;;;;;;;17.40;99.90;;;;;;4849317;29;19912;-85
2023/08/01 07:18:12;;;;;;;;;;;17.40;99.90;;;;;;4848837;29;19919;-86
2023/08/01 07:20:37;;;;;;;;;;;17.40;99.90;;;;;;4849094;29;19920;-85
2023/08/01 07:23:03;;;;;;;;;;;17.40;99.90;;;;;;4849014;29;19915;-85
2023/08/01 07:25:28;;;;;;;;;;;17.50;99.90;;;;;;4849329;29;19908;-86
2023/08/01 07:27:54;;;;;;;;;;;17.50;99.90;;;;;;4849195;29;20365;-86
2023/08/01 07:30:22;;;;;;;;;;;17.50;99.90;;;;;;4864714;29;19913;-94
2023/08/01 07:32:50;;;;;;;;;;;17.50;99.90;;;;;;4849529;29;20383;-92
2023/08/01 07:35:15;;;;;;;;;;;17.50;99.90;;;;;;4866078;29;19912;-94
2023/08/01 07:38:01;;;;;;;;;;;17.60;99.90;;;;;;4849339;29;20011;-92
2023/08/01 07:49:29;;;;;;;;;;;17.70;99.90;;;;;;4810002;29;20433;-95
2023/08/01 07:52:21;;;;;;;;;;;17.80;99.90;;;;;;4825956;29;19909;-96
2023/08/01 07:54:49;;;;;;;;;;;17.80;99.90;;;;;;4816634;29;20051;-94
2023/08/01 07:57:17;;;;;;;;;;;17.80;99.90;;;;;;4832010;29;19907;-94
2023/08/01 07:59:48;;;;;;;;;;;17.80;99.90;;;;;;4825060;29;19909;-96
2023/08/01 08:02:20;;;;;;;;;;;17.90;99.90;;;;;;4863868;29;19919;-95
2023/08/01 08:05:06;;;;;;;;;;;17.90;99.90;;;;;;4864317;29;19908;-95
2023/08/01 08:07:51;;;;;;;;;;;17.90;99.90;;;;;;4847710;29;19999;-96
2023/08/01 08:10:17;;;;;;;;;;;18.00;99.90;;;;;;4848536;29;19994;-95
2023/08/01 08:12:57;;;;;;;;;;;18.10;99.90;;;;;;4864159;29;20394;-95
2023/08/01 08:15:43;;;;;;;;;;;;;;;;;;;;;
2023/08/01 08:18:19;;;;;;;;;;;18.20;99.90;;;;;;4869323;29;20428;-96
2023/08/01 08:27:19;;;;;;;;;;;18.10;99.90;;;;;;4846741;29;20377;-95
2023/08/01 08:29:48;;;;;;;;;;;18.10;99.90;;;;;;4845514;29;19955;-96
2023/08/01 08:32:32;;;;;;;;;;;;;;;;;;;;;
2023/08/01 08:35:07;;;;;;;;;;;18.10;99.90;;;;;;4849224;29;19921;-95
2023/08/01 08:44:30;;;;;;;;;;;;;;;;;;;;;
2023/08/01 09:09:08;;;;;;;;;;;18.30;99.90;;;;;;4738611;30;19911;-95
2023/08/01 09:21:28;;;;;;;;;;;18.60;99.90;;;;;;4753888;30;20012;-94
2023/08/01 09:30:26;;;;;;;;;;;;;;;;;;;;;
2023/08/01 09:33:12;;;;;;;;;;;;;;;;;;;;;
2023/08/01 09:51:29;;;;;;;;;;;;;;;;;;;;;
2023/08/01 09:54:21;;;;;;;;;;;19.00;99.90;;;;;;4844474;29;19975;-96
2023/08/01 09:57:14;;;;;;;;;;;19.00;99.90;;;;;;4844716;29;20426;-95
2023/08/01 10:03:26;;;;;;;;;;;19.10;99.90;;;;;;4825783;29;20016;-96
2023/08/01 10:09:20;;;;;;;;;;;;;;;;;;;;;
2023/08/01 10:11:52;;;;;;;;;;;19.20;99.90;;;;;;4848080;29;20007;-95
2023/08/01 10:14:29;;;;;;;;;;;19.30;99.90;;;;;;4848196;29;20609;-96
2023/08/01 10:17:07;;;;;;;;;;;19.30;99.90;;;;;;4865885;29;19916;-94
2023/08/01 10:19:46;;;;;;;;;;;;;;;;;;;;;
2023/08/01 10:22:22;;;;;;;;;;;19.40;99.90;;;;;;4863781;29;19915;-93
2023/08/01 10:25:10;;;;;;;;;;;19.40;99.90;;;;;;4865720;29;19916;-94
2023/08/01 10:28:15;;;;;;;;;;;19.50;99.90;;;;;;4867377;29;19914;-94
2023/08/01 10:30:41;;;;;;;;;;;19.60;99.90;;;;;;4877328;29;19960;-88
2023/08/01 10:33:11;;;;;;;;;;;19.60;99.90;;;;;;4881303;29;19981;-86
2023/08/01 10:35:38;;;;;;;;;;;19.60;99.90;;;;;;4871032;29;19916;-87
2023/08/01 10:38:08;;;;;;;;;;;19.60;99.90;;;;;;4861862;29;19908;-87
2023/08/01 10:40:34;;;;;;;;;;;19.60;99.90;;;;;;4861801;29;19915;-87
2023/08/01 10:43:00;;;;;;;;;;;19.70;99.90;;;;;;4842913;29;19918;-87
2023/08/01 10:45:34;;;;;;;;;;;19.70;99.90;;;;;;4845429;29;19912;-94
2023/08/01 10:48:29;;;;;;;;;;;19.70;99.90;;;;;;4864998;29;19920;-93
2023/08/01 10:50:58;;;;;;;;;;;19.70;99.90;;;;;;4806416;29;20421;-95
2023/08/01 10:53:46;;;;;;;;;;;19.70;99.90;;;;;;4845789;29;19908;-94
2023/08/01 10:56:32;;;;;;;;;;;;;;;;;;;;;
2023/08/01 10:59:33;;;;;;;;;;;19.70;99.90;;;;;;4849374;29;20088;-94
2023/08/01 11:05:53;;;;;;;;;;;19.80;99.90;;;;;;4849072;29;20013;-95
2023/08/01 11:08:54;;;;;;;;;;;19.90;99.90;;;;;;4833082;29;20353;-91
2023/08/01 11:11:19;;;;;;;;;;;19.90;99.90;;;;;;4826891;29;19916;-90
2023/08/01 11:14:17;;;;;;;;;;;20.00;99.90;;;;;;4842490;29;19908;-90
2023/08/01 11:16:46;;;;;;;;;;;20.10;99.90;;;;;;4827941;29;20440;-91
2023/08/01 11:19:46;;;;;;;;;;;20.20;99.90;;;;;;4830422;29;19908;-91
2023/08/01 11:22:14;;;;;;;;;;;20.20;99.90;;;;;;4845336;29;20440;-90
2023/08/01 11:24:42;;;;;;;;;;;20.30;99.90;;;;;;4845618;29;19908;-91
2023/08/01 11:27:11;;;;;;;;;;;20.40;99.90;;;;;;4845511;29;20371;-91
2023/08/01 11:29:41;;;;;;;;;;;20.50;99.90;;;;;;4845663;29;19960;-91
2023/08/01 11:32:11;;;;;;;;;;;20.60;99.90;;;;;;4843884;29;19955;-91
2023/08/01 11:34:44;;;;;;;;;;;20.70;99.90;;;;;;4830920;29;19924;-90
2023/08/01 11:37:46;;;;;;;;;;;20.70;99.90;;;;;;4845019;29;19943;-90
2023/08/01 11:40:16;;;;;;;;;;;20.70;99.90;;;;;;4859770;29;19908;-92
2023/08/01 11:42:51;;;;;;;;;;;20.70;99.90;;;;;;4842890;29;20027;-90
2023/08/01 11:45:28;;;;;;;;;;;20.70;99.90;;;;;;4857940;29;19908;-90
2023/08/01 11:51:39;;;;;;;;;;;20.60;99.90;;;;;;4838376;29;20337;-94
2023/08/01 11:54:09;;;;;;;;;;;20.60;99.90;;;;;;4818030;29;19934;-91
2023/08/01 11:56:40;;;;;;;;;;;20.70;99.90;;;;;;4827117;29;19924;-88
2023/08/01 11:59:12;;;;;;;;;;;20.70;99.90;;;;;;4846415;29;19915;-90
2023/08/01 12:01:53;;;;;;;;;;;;;;;;;;;;;
2023/08/01 12:08:07;;;;;;;;;;;20.80;99.90;;;;;;4771143;30;19910;-93
2023/08/01 12:13:55;;;;;;;;;;;;;;;;;;;;;
2023/08/01 12:16:47;;;;;;;;;;;20.80;99.90;;;;;;4800006;29;19927;-92
2023/08/01 12:19:22;;;;;;;;;;;20.90;99.90;;;;;;4860345;29;19908;-90
2023/08/01 12:21:50;;;;;;;;;;;21.00;99.90;;;;;;4848315;29;19913;-92
2023/08/01 12:24:18;;;;;;;;;;;21.10;99.90;;;;;;4834939;29;19936;-93
2023/08/01 12:26:46;;;;;;;;;;;21.10;99.90;;;;;;4829482;29;19948;-91
2023/08/01 12:29:12;;;;;;;;;;;21.20;99.90;;;;;;4830035;29;19915;-92
2023/08/01 12:31:38;;;;;;;;;;;21.20;99.90;;;;;;4829434;29;19912;-91
2023/08/01 12:34:03;;;;;;;;;;;21.10;99.90;;;;;;4829378;29;19908;-91
2023/08/01 12:36:29;;;;;;;;;;;21.00;99.90;;;;;;4829368;29;19922;-91
2023/08/01 12:38:54;;;;;;;;;;;21.00;99.90;;;;;;4829842;29;20016;-91
2023/08/01 12:41:20;;;;;;;;;;;21.00;99.90;;;;;;4829543;29;19912;-93
2023/08/01 12:43:48;;;;;;;;;;;21.00;99.90;;;;;;4829536;29;19908;-92
2023/08/01 12:46:16;;;;;;;;;;;21.00;99.90;;;;;;4829698;29;19995;-92
2023/08/01 12:48:43;;;;;;;;;;;21.00;99.90;;;;;;4829646;29;19909;-92
2023/08/01 12:51:11;;;;;;;;;;;21.00;99.90;;;;;;4814238;29;20424;-91
2023/08/01 12:53:59;;;;;;;;;;;21.00;99.90;;;;;;4829617;29;19908;-94
2023/08/01 12:56:30;;;;;;;;;;;20.90;99.90;;;;;;4829501;29;19919;-93
2023/08/01 12:59:13;;;;;;;;;;;20.90;99.90;;;;;;4845783;29;20361;-92
2023/08/01 13:02:08;;;;;;;;;;;;;;;;;;;;;
2023/08/01 13:04:42;;;;;;;;;;;20.80;99.90;;;;;;4838863;29;19908;-94
2023/08/01 13:07:24;;;;;;;;;;;20.80;99.90;;;;;;4835680;29;19921;-93
2023/08/01 13:09:59;;;;;;;;;;;20.80;99.90;;;;;;4849218;29;19897;-92
2023/08/01 13:12:27;;;;;;;;;;;20.80;99.90;;;;;;4840912;29;20274;-91
2023/08/01 13:15:18;;;;;;;;;;;20.80;99.90;;;;;;4828933;29;19920;-92
2023/08/01 13:17:48;;;;;;;;;;;20.70;99.90;;;;;;4829146;29;19924;-92
2023/08/01 13:20:16;;;;;;;;;;;20.80;99.90;;;;;;4813989;29;19912;-90
2023/08/01 13:22:42;;;;;;;;;;;20.80;99.90;;;;;;4829339;29;19916;-91
2023/08/01 13:25:21;;;;;;;;;;;20.90;99.90;;;;;;4829236;29;19913;-94
2023/08/01 13:27:49;;;;;;;;;;;21.00;99.90;;;;;;4829111;29;19961;-93
2023/08/01 13:30:17;;;;;;;;;;;21.00;99.90;;;;;;4829062;29;20006;-93
2023/08/01 13:32:53;;;;;;;;;;;21.10;99.90;;;;;;4829018;29;20413;-92
2023/08/01 13:35:24;;;;;;;;;;;21.30;99.90;;;;;;4828987;29;19962;-92
2023/08/01 13:37:49;;;;;;;;;;;21.30;99.90;;;;;;4829074;29;19912;-93
2023/08/01 13:40:18;;;;;;;;;;;21.40;99.90;;;;;;4828879;29;19915;-92
2023/08/01 13:42:49;;;;;;;;;;;21.40;99.90;;;;;;4828852;29;19909;-90
2023/08/01 13:45:22;;;;;;;;;;;21.40;99.90;;;;;;4828672;29;20007;-90
2023/08/01 13:47:50;;;;;;;;;;;21.40;99.90;;;;;;4828714;29;19912;-90
2023/08/01 13:50:16;;;;;;;;;;;21.50;99.90;;;;;;4844541;29;19913;-91
2023/08/01 13:53:13;;;;;;;;;;;21.60;99.90;;;;;;4828546;29;19915;-90
2023/08/01 13:55:35;;;;;;;;;;;21.70;99.90;;;;;;4843177;29;19912;-89
2023/08/01 13:58:00;;;;;;;;;;;21.70;99.90;;;;;;4828567;29;19948;-93
2023/08/01 14:00:26;;;;;;;;;;;21.80;99.90;;;;;;4828388;29;19958;-89
2023/08/01 14:02:51;;;;;;;;;;;21.80;99.90;;;;;;4828631;29;19913;-89
2023/08/01 14:05:17;;;;;;;;;;;21.70;99.90;;;;;;4828472;29;19916;-91
2023/08/01 14:07:43;;;;;;;;;;;21.70;99.90;;;;;;4827983;29;19908;-91
2023/08/01 14:10:09;;;;;;;;;;;21.60;99.90;;;;;;4813160;29;20069;-90
2023/08/01 14:12:34;;;;;;;;;;;21.50;99.90;;;;;;4813130;29;19912;-90
2023/08/01 14:15:00;;;;;;;;;;;21.50;99.90;;;;;;4827955;29;19927;-92
2023/08/01 14:17:26;;;;;;;;;;;21.40;99.90;;;;;;4812939;29;19989;-93
2023/08/01 14:19:51;;;;;;;;;;;21.40;99.90;;;;;;4827808;29;19908;-90
2023/08/01 14:22:17;;;;;;;;;;;21.50;99.90;;;;;;4827985;29;19908;-92
2023/08/01 14:24:43;;;;;;;;;;;21.50;99.90;;;;;;4828093;29;19944;-90
2023/08/01 14:27:08;;;;;;;;;;;21.50;99.90;;;;;;4812957;29;19921;-92
2023/08/01 14:29:34;;;;;;;;;;;21.60;99.90;;;;;;4812531;29;19912;-92
2023/08/01 14:31:59;;;;;;;;;;;21.70;99.90;;;;;;4828442;29;19908;-92
2023/08/01 14:34:30;;;;;;;;;;;21.70;99.90;;;;;;4828328;29;19980;-92
2023/08/01 14:36:55;;;;;;;;;;;21.70;99.90;;;;;;4827863;29;19976;-92
2023/08/01 14:39:21;;;;;;;;;;;21.70;99.90;;;;;;4830741;29;19934;-89
2023/08/01 14:41:47;;;;;;;;;;;21.80;99.90;;;;;;4831289;29;19962;-91
2023/08/01 14:44:12;;;;;;;;;;;21.80;99.90;;;;;;4844552;29;19920;-93
2023/08/01 14:46:38;;;;;;;;;;;21.80;99.90;;;;;;4827463;29;20441;-90
2023/08/01 14:49:05;;;;;;;;;;;21.90;99.90;;;;;;4843639;29;19999;-93
2023/08/01 14:51:53;;;;;;;;;;;21.90;99.90;;;;;;4843731;29;19913;-93
2023/08/01 14:54:45;;;;;;;;;;;22.00;99.90;;;;;;4832993;29;19912;-96
2023/08/01 14:57:11;;;;;;;;;;;22.00;99.90;;;;;;4834382;24;19981;-93
2023/08/01 14:59:36;;;;;;;;;;;22.10;99.90;;;;;;4815631;29;19913;-94
2023/08/01 15:02:02;;;;;;;;;;;22.20;99.90;;;;;;4830665;29;19908;-93
2023/08/01 15:04:27;;;;;;;;;;;22.10;99.90;;;;;;4813366;29;20323;-92
2023/08/01 15:06:54;;;;;;;;;;;22.10;99.90;;;;;;4799870;29;19931;-95
2023/08/01 15:09:20;;;;;;;;;;;22.00;99.90;;;;;;4830275;29;19908;-94
2023/08/01 15:11:45;;;;;;;;;;;22.00;99.90;;;;;;4831711;29;20312;-94
2023/08/01 15:14:11;;;;;;;;;;;21.90;99.90;;;;;;4814848;29;19961;-94
2023/08/01 15:16:38;;;;;;;;;;;21.90;99.90;;;;;;4842144;29;19920;-92
2023/08/01 15:19:04;;;;;;;;;;;21.80;99.90;;;;;;4829532;29;19900;-93
2023/08/01 15:21:30;;;;;;;;;;;21.80;99.90;;;;;;4830351;29;19897;-93
2023/08/01 15:23:55;;;;;;;;;;;21.80;99.90;;;;;;4824018;29;20380;-92
2023/08/01 15:26:21;;;;;;;;;;;21.70;99.90;;;;;;4829844;29;20319;-93
2023/08/01 15:28:46;;;;;;;;;;;21.70;99.90;;;;;;4829135;29;19916;-94
2023/08/01 15:31:12;;;;;;;;;;;21.70;99.90;;;;;;4852374;29;19896;-94
2023/08/01 15:33:38;;;;;;;;;;;21.70;99.90;;;;;;4839548;29;19896;-92
2023/08/01 15:36:06;;;;;;;;;;;21.70;99.90;;;;;;4854070;29;19934;-93
2023/08/01 15:38:33;;;;;;;;;;;21.70;99.90;;;;;;4853890;29;19967;-93
2023/08/01 15:41:01;;;;;;;;;;;21.60;99.90;;;;;;4854197;29;19912;-92
2023/08/01 15:43:27;;;;;;;;;;;21.60;99.90;;;;;;4842788;29;19919;-95
2023/08/01 15:45:53;;;;;;;;;;;21.60;99.90;;;;;;4833333;29;19908;-95
2023/08/01 15:48:18;;;;;;;;;;;21.50;99.90;;;;;;4833308;29;19957;-93
2023/08/01 15:50:45;;;;;;;;;;;21.50;99.90;;;;;;4833246;29;20011;-93
2023/08/01 15:53:11;;;;;;;;;;;21.50;99.90;;;;;;4818167;29;19975;-92
2023/08/01 15:55:39;;;;;;;;;;;21.50;99.90;;;;;;4817332;29;19944;-92
2023/08/01 15:58:04;;;;;;;;;;;21.50;99.90;;;;;;4814204;29;19925;-92
2023/08/01 16:00:30;;;;;;;;;;;21.60;99.90;;;;;;4799074;29;20016;-91
2023/08/01 16:02:56;;;;;;;;;;;21.50;99.90;;;;;;4801756;29;19984;-95
2023/08/01 16:05:21;;;;;;;;;;;21.50;99.90;;;;;;4802921;29;20278;-93
2023/08/01 16:07:53;;;;;;;;;;;21.50;99.90;;;;;;4816248;29;19970;-94
2023/08/01 16:10:20;;;;;;;;;;;21.40;99.90;;;;;;4800281;29;20450;-94
2023/08/01 16:22:03;;;;;;;;;;;21.10;99.80;;;;;;4837730;29;19909;-95
2023/08/01 16:24:41;;;;;;;;;;;21.10;99.90;;;;;;4807854;29;19912;-96
2023/08/01 16:27:07;;;;;;;;;;;21.10;99.90;;;;;;4830716;29;19893;-96
2023/08/01 16:32:59;;;;;;;;;;;20.90;99.90;;;;;;4847728;29;19921;-96
2023/08/01 16:38:38;;;;;;;;;;;20.90;99.90;;;;;;4830785;29;19915;-95
2023/08/01 16:44:25;;;;;;;;;;;20.80;99.90;;;;;;4833080;29;19916;-95
2023/08/01 16:46:54;;;;;;;;;;;20.80;99.90;;;;;;4821323;29;19956;-96
2023/08/01 16:55:34;;;;;;;;;;;20.80;99.90;;;;;;4799166;29;19904;-93
2023/08/01 16:58:09;;;;;;;;;;;20.70;99.90;;;;;;4792065;29;19925;-92
2023/08/01 17:00:59;;;;;;;;;;;20.70;99.90;;;;;;4795573;29;19968;-94
2023/08/01 17:06:28;;;;;;;;;;;20.70;99.90;;;;;;4823147;29;19946;-92
2023/08/01 17:08:59;;;;;;;;;;;20.70;99.90;;;;;;4804968;29;19909;-93
2023/08/01 17:14:33;;;;;;;;;;;20.70;99.90;;;;;;4814744;29;19962;-96
2023/08/01 17:16:59;;;;;;;;;;;20.70;99.90;;;;;;4802623;29;19923;-96